MSC Kwangyang — D5NP6 — position and weather

sailwx.info

Track history (hours):
 
Tides and Currents Weather Stations Pressure Air Temp Water Temp Dewpoint Dewpoint Depression Visibility Wind Speed Wind Dir Waves Ship Positions

MSC Kwangyang

Last reported at 2018-Feb-21 08:30 UTC. Time now 2018-Feb-24 02:26 UTC.
Position N 32°04' W 080°17'.

Length 304 m; draft 12.4 m.

Type: Ship. MMSI: 636017973.

Date/timePositionNaut miles runAvg speedWind from/ knotsBaromVisibWave heightAir tempDewpointWater temp
2018-Feb-21 08:30N 32°04' W 080°17'15 9.2
2018-Feb-21 06:55N 31°57' W 080°32'4 9.6
2018-Feb-21 06:27N 31°56' W 080°37'3 7.7
2018-Feb-21 06:00N 31°57' W 080°41'4 8.6
2018-Feb-21 05:30N 31°59' W 080°46'612.5
2018-Feb-21 04:59N 32°02' W 080°52'510.4
2018-Feb-21 04:30N 32°04' W 080°58'4 7.8
2018-Feb-21 04:00N 32°05' W 081°02'3 5.0
2018-Feb-21 03:28N 32°05' W 081°05'2 4.5
2018-Feb-21 03:00N 32°06' W 081°07'1 2.8
2018-Feb-21 02:30N 32°07' W 081°08'0 0.1
2018-Feb-21 01:56N 32°07' W 081°08'0 0.0
2018-Feb-21 01:14N 32°07' W 081°08'0 0.0
2018-Feb-21 00:56N 32°07' W 081°08'0 0.0
2018-Feb-21 00:26N 32°07' W 081°08'0 0.0
2018-Feb-20 23:56N 32°07' W 081°08'0 0.0
2018-Feb-20 23:26N 32°07' W 081°08'0 0.0
2018-Feb-20 22:56N 32°07' W 081°08'0 0.0
2018-Feb-20 22:26N 32°07' W 081°08'0 0.0
2018-Feb-20 21:56N 32°07' W 081°08'0 0.0
2018-Feb-20 21:26N 32°07' W 081°08'0 0.0
2018-Feb-20 20:56N 32°07' W 081°08'0 0.0
2018-Feb-20 20:26N 32°07' W 081°08'0 0.0
2018-Feb-20 19:56N 32°07' W 081°08'0 0.0
2018-Feb-20 19:29N 32°07' W 081°08'0 0.0
2018-Feb-20 18:54N 32°07' W 081°08'0 0.0
2018-Feb-20 18:30N 32°07' W 081°08'0 0.0
2018-Feb-20 18:00N 32°07' W 081°08'0 0.0
2018-Feb-20 17:30N 32°07' W 081°08'0 0.0
2018-Feb-20 17:00N 32°07' W 081°08'0 0.0
2018-Feb-20 16:30N 32°07' W 081°08'0 0.0
2018-Feb-20 16:00N 32°07' W 081°08'0 0.0
2018-Feb-20 15:30N 32°07' W 081°08'0 0.0
2018-Feb-20 15:00N 32°07' W 081°08'0 0.0
2018-Feb-20 14:30N 32°07' W 081°08'0 0.1
2018-Feb-20 14:00N 32°07' W 081°08'0 0.1
2018-Feb-20 13:18N 32°07' W 081°08'0 0.0
2018-Feb-20 12:54N 32°07' W 081°08'0 0.0
2018-Feb-20 12:30N 32°07' W 081°08'0 0.0
2018-Feb-20 11:48N 32°07' W 081°08'0 0.1
2018-Feb-20 11:24N 32°07' W 081°08'0 0.0
2018-Feb-20 11:00N 32°07' W 081°08'0 0.0
2018-Feb-20 10:30N 32°07' W 081°08'0 0.0
2018-Feb-20 09:54N 32°07' W 081°08'0 0.0
2018-Feb-20 09:30N 32°07' W 081°08'0 0.0
2018-Feb-20 08:54N 32°07' W 081°08'0 0.0
2018-Feb-20 08:30N 32°07' W 081°08'0 0.0
2018-Feb-20 07:54N 32°07' W 081°08'0 0.0
2018-Feb-20 07:30N 32°07' W 081°08'0 0.0
2018-Feb-20 07:00N 32°07' W 081°08'0 0.0
2018-Feb-20 06:30N 32°07' W 081°08'0 0.0
2018-Feb-20 06:00N 32°07' W 081°08'0 0.0
2018-Feb-20 05:30N 32°07' W 081°08'0 0.0
2018-Feb-20 05:00N 32°07' W 081°08'0 0.1
2018-Feb-20 04:30N 32°07' W 081°08'0 0.1
2018-Feb-20 04:00N 32°07' W 081°08'0 0.0
2018-Feb-20 03:30N 32°07' W 081°08'0 0.0
2018-Feb-20 03:00N 32°07' W 081°08'0 0.0
2018-Feb-20 02:30N 32°07' W 081°08'0 0.0
2018-Feb-20 02:00N 32°07' W 081°08'0 0.0
2018-Feb-20 01:30N 32°07' W 081°08'0 0.0
2018-Feb-20 01:00N 32°07' W 081°08'0 0.0
2018-Feb-20 00:30N 32°07' W 081°08'0 0.0
2018-Feb-19 23:48N 32°07' W 081°08'0 0.0
2018-Feb-19 23:30N 32°07' W 081°08'0 0.0
2018-Feb-19 23:00N 32°07' W 081°08'0 0.0
2018-Feb-19 22:30N 32°07' W 081°08'0 0.0
2018-Feb-19 22:00N 32°07' W 081°08'0 0.0
2018-Feb-19 21:24N 32°07' W 081°08'0 0.0
2018-Feb-19 21:00N 32°07' W 081°08'0 0.0
2018-Feb-19 20:30N 32°07' W 081°08'0 0.0
2018-Feb-19 20:00N 32°07' W 081°08'0 0.0
2018-Feb-19 19:30N 32°07' W 081°08'0 0.0
2018-Feb-19 19:00N 32°07' W 081°08'0 0.0
2018-Feb-19 18:30N 32°07' W 081°08'0 0.0
2018-Feb-19 17:54N 32°07' W 081°08'0 0.0
2018-Feb-19 17:30N 32°07' W 081°08'0 0.0
2018-Feb-19 17:00N 32°07' W 081°08'0 0.0
2018-Feb-19 16:30N 32°07' W 081°08'0 0.0
2018-Feb-19 16:00N 32°07' W 081°08'0 0.0
2018-Feb-19 15:30N 32°07' W 081°08'0 0.0
2018-Feb-19 15:00N 32°07' W 081°08'0 0.0
2018-Feb-19 14:18N 32°07' W 081°08'0 0.0
2018-Feb-19 14:00N 32°07' W 081°08'0 0.0
2018-Feb-19 13:30N 32°07' W 081°08'0 0.0
2018-Feb-19 13:00N 32°07' W 081°08'0 0.0
2018-Feb-19 12:30N 32°07' W 081°08'0 0.0
2018-Feb-19 12:00N 32°07' W 081°08'0 0.0
2018-Feb-19 11:30N 32°07' W 081°08'0 0.0
2018-Feb-19 11:00N 32°07' W 081°08'0 0.0
2018-Feb-19 10:30N 32°07' W 081°08'0 0.0
2018-Feb-19 09:54N 32°07' W 081°08'0 0.0
2018-Feb-19 09:30N 32°07' W 081°08'0 0.0
2018-Feb-19 09:00N 32°07' W 081°08'0 0.0
2018-Feb-19 08:18N 32°07' W 081°08'0 0.0
2018-Feb-19 07:54N 32°07' W 081°08'0 0.0
2018-Feb-19 07:24N 32°07' W 081°08'0 0.0
2018-Feb-19 07:00N 32°07' W 081°08'0 0.0
2018-Feb-19 06:30N 32°07' W 081°08'1 1.2
2018-Feb-19 06:00N 32°08' W 081°08'1 3.0
2018-Feb-19 05:30N 32°07' W 081°07'3 6.1
2018-Feb-19 05:00N 32°05' W 081°05'4 7.3
2018-Feb-19 04:30N 32°06' W 081°01'612.1
2018-Feb-19 04:00N 32°02' W 080°55'612.7
2018-Feb-19 03:30N 32°01' W 080°48'714.5
2018-Feb-19 03:00N 31°57' W 080°40'4 8.4
2018-Feb-19 02:30N 31°57' W 080°36'2 1.4
2018-Feb-19 01:14N 31°58' W 080°34'0 0.0
2018-Feb-19 00:44N 31°58' W 080°34'0 0.0
2018-Feb-19 00:26N 31°58' W 080°34'0 0.0
2018-Feb-18 23:56N 31°58' W 080°34'0 0.0
2018-Feb-18 23:08N 31°58' W 080°34'0 0.0
2018-Feb-18 22:56N 31°58' W 080°34'0 0.0
2018-Feb-18 19:56N 31°58' W 080°34'0 0.1
2018-Feb-18 19:26N 31°58' W 080°34'0 0.2
2018-Feb-18 18:56N 31°58' W 080°33'0 0.2
2018-Feb-18 18:26N 31°58' W 080°33'0 0.1
2018-Feb-18 17:56N 31°58' W 080°33'0 0.1
2018-Feb-18 17:26N 31°58' W 080°33'0 0.1
2018-Feb-18 16:56N 31°58' W 080°33'0 0.0
2018-Feb-18 16:26N 31°58' W 080°33'0 0.0
2018-Feb-18 15:56N 31°58' W 080°33'0 0.1
2018-Feb-18 15:20N 31°58' W 080°33'0 0.0
2018-Feb-18 14:56N 31°58' W 080°33'0 0.1
2018-Feb-18 14:26N 31°58' W 080°33'0 0.2
2018-Feb-18 13:56N 31°58' W 080°33'0 0.1
2018-Feb-18 13:26N 31°58' W 080°33'0 0.1
2018-Feb-18 12:56N 31°58' W 080°33'0 0.0
2018-Feb-18 12:26N 31°58' W 080°33'0 0.0
2018-Feb-18 11:56N 31°58' W 080°33'0 0.0
2018-Feb-18 11:20N 31°58' W 080°33'0 0.0
2018-Feb-18 10:56N 31°58' W 080°33'0 0.2
2018-Feb-18 10:26N 31°58' W 080°33'0 0.1
2018-Feb-18 09:56N 31°58' W 080°33'0 0.0
2018-Feb-18 09:26N 31°58' W 080°33'0 0.0
2018-Feb-18 08:50N 31°58' W 080°33'0 0.0
2018-Feb-18 08:14N 31°58' W 080°33'0 0.0
2018-Feb-18 07:56N 31°58' W 080°33'0 0.1
2018-Feb-18 07:26N 31°58' W 080°33'0 0.0
2018-Feb-18 06:50N 31°58' W 080°33'0 0.0
2018-Feb-18 06:26N 31°58' W 080°33'0 0.0
2018-Feb-18 05:56N 31°58' W 080°33'0 0.1
2018-Feb-18 05:26N 31°58' W 080°33'0 0.0
2018-Feb-18 04:56N 31°58' W 080°33'0 0.0
2018-Feb-18 04:26N 31°58' W 080°33'0 0.0
2018-Feb-18 03:44N 31°58' W 080°33'0 0.1
2018-Feb-18 03:26N 31°58' W 080°33'0 0.1
2018-Feb-18 02:56N 31°58' W 080°33'0 0.0
2018-Feb-18 02:26N 31°58' W 080°33'0 0.0
2018-Feb-18 01:56N 31°58' W 080°33'0 0.0
2018-Feb-18 01:20N 31°58' W 080°33'0 0.1
2018-Feb-18 00:56N 31°58' W 080°33'0 0.1
2018-Feb-18 00:26N 31°58' W 080°33'0 0.1
2018-Feb-17 23:56N 31°58' W 080°34'0 0.1
2018-Feb-17 23:26N 31°58' W 080°34'0 0.1
2018-Feb-17 22:56N 31°58' W 080°34'0 0.0
2018-Feb-17 22:26N 31°58' W 080°34'0 0.1
2018-Feb-17 21:56N 31°58' W 080°34'0 0.1
2018-Feb-17 20:44N 31°58' W 080°34'0 0.2
2018-Feb-17 20:26N 31°58' W 080°34'0 0.2
2018-Feb-17 19:56N 31°58' W 080°33'0 0.1
2018-Feb-17 19:20N 31°58' W 080°33'0 0.1
2018-Feb-17 18:56N 31°58' W 080°33'0 0.1
2018-Feb-17 18:20N 31°58' W 080°33'0 0.0
2018-Feb-17 17:56N 31°58' W 080°33'0 0.1
2018-Feb-17 17:26N 31°58' W 080°33'0 0.1
2018-Feb-17 16:56N 31°58' W 080°33'0 0.1
2018-Feb-17 16:26N 31°58' W 080°33'0 0.1
2018-Feb-17 15:56N 31°58' W 080°33'0 0.1
2018-Feb-17 15:20N 31°58' W 080°34'0 0.2
2018-Feb-17 14:56N 31°58' W 080°34'0 0.1
2018-Feb-17 14:30N 31°58' W 080°34'1 0.8
2018-Feb-17 13:46N 31°59' W 080°34'3 9.4
2018-Feb-17 13:30N 31°59' W 080°31'4 9.2
2018-Feb-17 13:00N 31°58' W 080°26'1 1.0
2018-Feb-17 12:27N 31°58' W 080°25'0 0.7
2018-Feb-17 12:00N 31°58' W 080°25'0 0.8
2018-Feb-17 11:30N 31°58' W 080°24'0 1.0
2018-Feb-17 11:00N 31°58' W 080°24'1 2.7
2018-Feb-17 10:30N 31°58' W 080°22'510.8
2018-Feb-17 10:00N 31°59' W 080°16'611.2
2018-Feb-17 09:30N 32°01' W 080°10'510.9
2018-Feb-17 09:00N 32°04' W 080°05'510.8
2018-Feb-17 08:30N 32°07' W 079°59'211 9.8
2018-Feb-16 10:58N 34°07' W 076°31'510.9
2018-Feb-16 10:30N 34°10' W 076°27'1010.7
2018-Feb-16 09:35N 34°17' W 076°18'110.8
2018-Feb-16 09:30N 34°17' W 076°17'610.9
2018-Feb-16 08:59N 34°21' W 076°12'611.4
2018-Feb-16 08:29N 34°25' W 076°07'612.1
2018-Feb-16 07:59N 34°29' W 076°02'811.8
2018-Feb-16 07:20N 34°35' W 075°55'132 8.9
2018-Feb-15 16:30N 36°46' W 075°38'610.2
2018-Feb-15 15:54N 36°48' W 075°45'410.0
2018-Feb-15 15:30N 36°50' W 075°49'510.1
2018-Feb-15 15:00N 36°53' W 075°54'5 9.7
2018-Feb-15 14:26N 36°56' W 075°59'4 8.9
2018-Feb-15 14:00N 36°58' W 076°04'713.7
2018-Feb-15 13:30N 36°60' W 076°12'611.1
2018-Feb-15 13:00N 36°59' W 076°19'5 9.0
2018-Feb-15 12:30N 36°55' W 076°20'3 6.7
2018-Feb-15 12:00N 36°52' W 076°19'0 0.5
2018-Feb-15 11:29N 36°51' W 076°20'0 0.0
2018-Feb-15 10:59N 36°51' W 076°20'0 0.0
2018-Feb-15 10:29N 36°51' W 076°20'0 0.0
2018-Feb-15 09:59N 36°51' W 076°20'0 0.0
2018-Feb-15 09:29N 36°51' W 076°20'0 0.0
2018-Feb-15 08:59N 36°51' W 076°20'0 0.0
2018-Feb-15 08:29N 36°51' W 076°20'0 0.0
2018-Feb-15 07:59N 36°51' W 076°20'0 0.0
2018-Feb-15 07:29N 36°51' W 076°20'0 0.0
2018-Feb-15 06:59N 36°51' W 076°20'0 0.0
2018-Feb-15 06:29N 36°51' W 076°20'0 0.0
2018-Feb-15 05:59N 36°51' W 076°20'0 0.0
2018-Feb-15 05:29N 36°51' W 076°20'0 0.0
2018-Feb-15 04:59N 36°51' W 076°20'0 0.0
2018-Feb-15 04:29N 36°51' W 076°20'0 0.0
2018-Feb-15 03:59N 36°51' W 076°20'0 0.0
2018-Feb-15 03:29N 36°51' W 076°20'0 0.0
2018-Feb-15 02:59N 36°51' W 076°20'0 0.0
2018-Feb-15 02:29N 36°51' W 076°20'0 0.0
2018-Feb-15 01:59N 36°51' W 076°20'0 0.0
2018-Feb-15 01:29N 36°51' W 076°20'0 0.0
2018-Feb-15 00:59N 36°51' W 076°20'0 0.0
2018-Feb-15 00:29N 36°51' W 076°20'0 0.0
2018-Feb-14 23:59N 36°51' W 076°20'0 0.0
2018-Feb-14 23:29N 36°51' W 076°20'0 0.0
2018-Feb-14 23:00N 36°51' W 076°20'0 0.9
2018-Feb-14 22:30N 36°52' W 076°19'3 6.0
2018-Feb-14 22:00N 36°55' W 076°20'4 8.9
2018-Feb-14 21:30N 36°59' W 076°20'712.3
2018-Feb-14 20:59N 36°60' W 076°11'816.8
2018-Feb-14 20:30N 36°57' W 076°02'510.1
2018-Feb-14 20:00N 36°56' W 075°56'4 7.2
2018-Feb-14 19:30N 36°53' W 075°53'5 9.0
2018-Feb-14 19:00N 36°51' W 075°48'5 9.7
2018-Feb-14 18:28N 36°48' W 075°43'3 2.1
2018-Feb-14 17:07N 36°46' W 075°41'0 0.4
2018-Feb-14 17:00N 36°45' W 075°40'1 0.4
2018-Feb-14 13:51N 36°46' W 075°42'2 7.2
2018-Feb-14 13:30N 36°48' W 075°44'5 9.7
2018-Feb-14 13:00N 36°50' W 075°49'5 9.7
2018-Feb-14 12:30N 36°53' W 075°54'5 9.8
2018-Feb-14 12:00N 36°57' W 075°59'612.2
2018-Feb-14 11:30N 37°01' W 076°03'916.8
2018-Feb-14 10:57N 37°09' W 076°09'917.9
2018-Feb-14 10:27N 37°18' W 076°06'1018.9
2018-Feb-14 09:57N 37°28' W 076°04'1917.7
2018-Feb-14 08:52N 37°46' W 076°11'1221.2
2018-Feb-14 08:17N 37°58' W 076°11'921.4
2018-Feb-14 07:52N 38°07' W 076°13'2421.4
2018-Feb-14 06:44N 38°30' W 076°24'520.9
2018-Feb-14 06:31N 38°34' W 076°26'1020.5
2018-Feb-14 06:00N 38°44' W 076°26'1121.2
2018-Feb-14 05:30N 38°55' W 076°23'714.0
2018-Feb-14 05:00N 39°02' W 076°23'714.0
2018-Feb-14 04:30N 39°09' W 076°24'611.4
2018-Feb-14 04:00N 39°12' W 076°30'4 8.2
2018-Feb-14 03:30N 39°15' W 076°34'0 0.9
2018-Feb-14 03:00N 39°15' W 076°33'0 0.0
2018-Feb-14 02:30N 39°15' W 076°33'0 0.0
2018-Feb-14 02:00N 39°15' W 076°33'0 0.0
2018-Feb-14 01:27N 39°15' W 076°33'0 0.0
2018-Feb-14 01:00N 39°15' W 076°33'0 0.0
2018-Feb-14 00:30N 39°15' W 076°33'0 0.0
2018-Feb-14 00:00N 39°15' W 076°33'0 0.0
2018-Feb-13 23:30N 39°15' W 076°33'0 0.0
2018-Feb-13 23:00N 39°15' W 076°33'0 0.0
2018-Feb-13 22:30N 39°15' W 076°33'0 0.0
2018-Feb-13 22:00N 39°15' W 076°33'0 0.0
2018-Feb-13 21:30N 39°15' W 076°33'0 0.0
2018-Feb-13 21:00N 39°15' W 076°33'0 0.0
2018-Feb-13 20:30N 39°15' W 076°33'0 0.0
2018-Feb-13 20:00N 39°15' W 076°33'0 0.0
2018-Feb-13 19:30N 39°15' W 076°33'0 0.0
2018-Feb-13 19:00N 39°15' W 076°33'0 0.0
2018-Feb-13 18:30N 39°15' W 076°33'0 0.0
2018-Feb-13 18:00N 39°15' W 076°33'0 0.0
2018-Feb-13 17:30N 39°15' W 076°33'0 0.0
2018-Feb-13 17:00N 39°15' W 076°33'0 0.0
2018-Feb-13 16:30N 39°15' W 076°33'0 0.0
2018-Feb-13 16:00N 39°15' W 076°33'0 0.0
2018-Feb-13 15:30N 39°15' W 076°33'0 0.0
2018-Feb-13 15:00N 39°15' W 076°33'0 0.0
2018-Feb-13 14:30N 39°15' W 076°33'0 0.0
2018-Feb-13 14:00N 39°15' W 076°33'0 0.0
2018-Feb-13 13:30N 39°15' W 076°33'0 0.0
2018-Feb-13 13:00N 39°15' W 076°33'0 0.0
2018-Feb-13 12:30N 39°15' W 076°33'0 0.0
2018-Feb-13 12:00N 39°15' W 076°33'0 0.0
2018-Feb-13 11:30N 39°15' W 076°33'0 0.0
2018-Feb-13 11:00N 39°15' W 076°33'1 1.8
2018-Feb-13 10:30N 39°14' W 076°33'2 3.1
2018-Feb-13 10:00N 39°13' W 076°32'2 4.4
2018-Feb-13 09:30N 39°12' W 076°29'611.1
2018-Feb-13 09:01N 39°08' W 076°24'713.9
2018-Feb-13 08:30N 39°01' W 076°23'714.4
2018-Feb-13 08:00N 38°54' W 076°24'918.9
2018-Feb-13 07:30N 38°45' W 076°26'918.7
2018-Feb-13 07:01N 38°35' W 076°26'3218.9
2018-Feb-13 05:19N 38°05' W 076°13'618.8
2018-Feb-13 04:59N 37°59' W 076°12'3017.6
2018-Feb-13 03:18N 37°30' W 076°03'918.3
2018-Feb-13 02:49N 37°22' W 076°05'719.1
2018-Feb-13 02:28N 37°15' W 076°08'917.1
2018-Feb-13 01:57N 37°06' W 076°07'818.0
2018-Feb-13 01:30N 36°60' W 076°01'510.9
2018-Feb-13 01:00N 36°56' W 075°57'4 7.3
2018-Feb-13 00:30N 36°54' W 075°53'6 9.7
2018-Feb-12 23:55N 36°50' W 075°47'  
Track history (hours):
 
Tides and Currents Weather Stations Pressure Air Temp Water Temp Dewpoint Dewpoint Depression Visibility Wind Speed Wind Dir Waves Ship Positions

MSC Kwangyang

Last reported at 2018-Feb-21 08:30 UTC. Time now 2018-Feb-24 02:26 UTC.
Position N 32°04' W 080°17'.

Length 304 m; draft 12.4 m.

Type: Ship. MMSI: 636017973.

Date/timePositionNaut miles runAvg speedWind from/ knotsBaromVisibWave heightAir tempDewpointWater temp
2018-Feb-21 08:30N 32°04' W 080°17'15 9.2
2018-Feb-21 06:55N 31°57' W 080°32'4 9.6
2018-Feb-21 06:27N 31°56' W 080°37'3 7.7
2018-Feb-21 06:00N 31°57' W 080°41'4 8.6
2018-Feb-21 05:30N 31°59' W 080°46'612.5
2018-Feb-21 04:59N 32°02' W 080°52'510.4
2018-Feb-21 04:30N 32°04' W 080°58'4 7.8
2018-Feb-21 04:00N 32°05' W 081°02'3 5.0
2018-Feb-21 03:28N 32°05' W 081°05'2 4.5
2018-Feb-21 03:00N 32°06' W 081°07'1 2.8
2018-Feb-21 02:30N 32°07' W 081°08'0 0.1
2018-Feb-21 01:56N 32°07' W 081°08'0 0.0
2018-Feb-21 01:14N 32°07' W 081°08'0 0.0
2018-Feb-21 00:56N 32°07' W 081°08'0 0.0
2018-Feb-21 00:26N 32°07' W 081°08'0 0.0
2018-Feb-20 23:56N 32°07' W 081°08'0 0.0
2018-Feb-20 23:26N 32°07' W 081°08'0 0.0
2018-Feb-20 22:56N 32°07' W 081°08'0 0.0
2018-Feb-20 22:26N 32°07' W 081°08'0 0.0
2018-Feb-20 21:56N 32°07' W 081°08'0 0.0
2018-Feb-20 21:26N 32°07' W 081°08'0 0.0
2018-Feb-20 20:56N 32°07' W 081°08'0 0.0
2018-Feb-20 20:26N 32°07' W 081°08'0 0.0
2018-Feb-20 19:56N 32°07' W 081°08'0 0.0
2018-Feb-20 19:29N 32°07' W 081°08'0 0.0
2018-Feb-20 18:54N 32°07' W 081°08'0 0.0
2018-Feb-20 18:30N 32°07' W 081°08'0 0.0
2018-Feb-20 18:00N 32°07' W 081°08'0 0.0
2018-Feb-20 17:30N 32°07' W 081°08'0 0.0
2018-Feb-20 17:00N 32°07' W 081°08'0 0.0
2018-Feb-20 16:30N 32°07' W 081°08'0 0.0
2018-Feb-20 16:00N 32°07' W 081°08'0 0.0
2018-Feb-20 15:30N 32°07' W 081°08'0 0.0
2018-Feb-20 15:00N 32°07' W 081°08'0 0.0
2018-Feb-20 14:30N 32°07' W 081°08'0 0.1
2018-Feb-20 14:00N 32°07' W 081°08'0 0.1
2018-Feb-20 13:18N 32°07' W 081°08'0 0.0
2018-Feb-20 12:54N 32°07' W 081°08'0 0.0
2018-Feb-20 12:30N 32°07' W 081°08'0 0.0
2018-Feb-20 11:48N 32°07' W 081°08'0 0.1
2018-Feb-20 11:24N 32°07' W 081°08'0 0.0
2018-Feb-20 11:00N 32°07' W 081°08'0 0.0
2018-Feb-20 10:30N 32°07' W 081°08'0 0.0
2018-Feb-20 09:54N 32°07' W 081°08'0 0.0
2018-Feb-20 09:30N 32°07' W 081°08'0 0.0
2018-Feb-20 08:54N 32°07' W 081°08'0 0.0
2018-Feb-20 08:30N 32°07' W 081°08'0 0.0
2018-Feb-20 07:54N 32°07' W 081°08'0 0.0
2018-Feb-20 07:30N 32°07' W 081°08'0 0.0
2018-Feb-20 07:00N 32°07' W 081°08'0 0.0
2018-Feb-20 06:30N 32°07' W 081°08'0 0.0
2018-Feb-20 06:00N 32°07' W 081°08'0 0.0
2018-Feb-20 05:30N 32°07' W 081°08'0 0.0
2018-Feb-20 05:00N 32°07' W 081°08'0 0.1
2018-Feb-20 04:30N 32°07' W 081°08'0 0.1
2018-Feb-20 04:00N 32°07' W 081°08'0 0.0
2018-Feb-20 03:30N 32°07' W 081°08'0 0.0
2018-Feb-20 03:00N 32°07' W 081°08'0 0.0
2018-Feb-20 02:30N 32°07' W 081°08'0 0.0
2018-Feb-20 02:00N 32°07' W 081°08'0 0.0
2018-Feb-20 01:30N 32°07' W 081°08'0 0.0
2018-Feb-20 01:00N 32°07' W 081°08'0 0.0
2018-Feb-20 00:30N 32°07' W 081°08'0 0.0
2018-Feb-19 23:48N 32°07' W 081°08'0 0.0
2018-Feb-19 23:30N 32°07' W 081°08'0 0.0
2018-Feb-19 23:00N 32°07' W 081°08'0 0.0
2018-Feb-19 22:30N 32°07' W 081°08'0 0.0
2018-Feb-19 22:00N 32°07' W 081°08'0 0.0
2018-Feb-19 21:24N 32°07' W 081°08'0 0.0
2018-Feb-19 21:00N 32°07' W 081°08'0 0.0
2018-Feb-19 20:30N 32°07' W 081°08'0 0.0
2018-Feb-19 20:00N 32°07' W 081°08'0 0.0
2018-Feb-19 19:30N 32°07' W 081°08'0 0.0
2018-Feb-19 19:00N 32°07' W 081°08'0 0.0
2018-Feb-19 18:30N 32°07' W 081°08'0 0.0
2018-Feb-19 17:54N 32°07' W 081°08'0 0.0
2018-Feb-19 17:30N 32°07' W 081°08'0 0.0
2018-Feb-19 17:00N 32°07' W 081°08'0 0.0
2018-Feb-19 16:30N 32°07' W 081°08'0 0.0
2018-Feb-19 16:00N 32°07' W 081°08'0 0.0
2018-Feb-19 15:30N 32°07' W 081°08'0 0.0
2018-Feb-19 15:00N 32°07' W 081°08'0 0.0
2018-Feb-19 14:18N 32°07' W 081°08'0 0.0
2018-Feb-19 14:00N 32°07' W 081°08'0 0.0
2018-Feb-19 13:30N 32°07' W 081°08'0 0.0
2018-Feb-19 13:00N 32°07' W 081°08'0 0.0
2018-Feb-19 12:30N 32°07' W 081°08'0 0.0
2018-Feb-19 12:00N 32°07' W 081°08'0 0.0
2018-Feb-19 11:30N 32°07' W 081°08'0 0.0
2018-Feb-19 11:00N 32°07' W 081°08'0 0.0
2018-Feb-19 10:30N 32°07' W 081°08'0 0.0
2018-Feb-19 09:54N 32°07' W 081°08'0 0.0
2018-Feb-19 09:30N 32°07' W 081°08'0 0.0
2018-Feb-19 09:00N 32°07' W 081°08'0 0.0
2018-Feb-19 08:18N 32°07' W 081°08'0 0.0
2018-Feb-19 07:54N 32°07' W 081°08'0 0.0
2018-Feb-19 07:24N 32°07' W 081°08'0 0.0
2018-Feb-19 07:00N 32°07' W 081°08'0 0.0
2018-Feb-19 06:30N 32°07' W 081°08'1 1.2
2018-Feb-19 06:00N 32°08' W 081°08'1 3.0
2018-Feb-19 05:30N 32°07' W 081°07'3 6.1
2018-Feb-19 05:00N 32°05' W 081°05'4 7.3
2018-Feb-19 04:30N 32°06' W 081°01'612.1
2018-Feb-19 04:00N 32°02' W 080°55'612.7
2018-Feb-19 03:30N 32°01' W 080°48'714.5
2018-Feb-19 03:00N 31°57' W 080°40'4 8.4
2018-Feb-19 02:30N 31°57' W 080°36'2 1.4
2018-Feb-19 01:14N 31°58' W 080°34'0 0.0
2018-Feb-19 00:44N 31°58' W 080°34'0 0.0
2018-Feb-19 00:26N 31°58' W 080°34'0 0.0
2018-Feb-18 23:56N 31°58' W 080°34'0 0.0
2018-Feb-18 23:08N 31°58' W 080°34'0 0.0
2018-Feb-18 22:56N 31°58' W 080°34'0 0.0
2018-Feb-18 19:56N 31°58' W 080°34'0 0.1
2018-Feb-18 19:26N 31°58' W 080°34'0 0.2
2018-Feb-18 18:56N 31°58' W 080°33'0 0.2
2018-Feb-18 18:26N 31°58' W 080°33'0 0.1
2018-Feb-18 17:56N 31°58' W 080°33'0 0.1
2018-Feb-18 17:26N 31°58' W 080°33'0 0.1
2018-Feb-18 16:56N 31°58' W 080°33'0 0.0
2018-Feb-18 16:26N 31°58' W 080°33'0 0.0
2018-Feb-18 15:56N 31°58' W 080°33'0 0.1
2018-Feb-18 15:20N 31°58' W 080°33'0 0.0
2018-Feb-18 14:56N 31°58' W 080°33'0 0.1
2018-Feb-18 14:26N 31°58' W 080°33'0 0.2
2018-Feb-18 13:56N 31°58' W 080°33'0 0.1
2018-Feb-18 13:26N 31°58' W 080°33'0 0.1
2018-Feb-18 12:56N 31°58' W 080°33'0 0.0
2018-Feb-18 12:26N 31°58' W 080°33'0 0.0
2018-Feb-18 11:56N 31°58' W 080°33'0 0.0
2018-Feb-18 11:20N 31°58' W 080°33'0 0.0
2018-Feb-18 10:56N 31°58' W 080°33'0 0.2
2018-Feb-18 10:26N 31°58' W 080°33'0 0.1
2018-Feb-18 09:56N 31°58' W 080°33'0 0.0
2018-Feb-18 09:26N 31°58' W 080°33'0 0.0
2018-Feb-18 08:50N 31°58' W 080°33'0 0.0
2018-Feb-18 08:14N 31°58' W 080°33'0 0.0
2018-Feb-18 07:56N 31°58' W 080°33'0 0.1
2018-Feb-18 07:26N 31°58' W 080°33'0 0.0
2018-Feb-18 06:50N 31°58' W 080°33'0 0.0
2018-Feb-18 06:26N 31°58' W 080°33'0 0.0
2018-Feb-18 05:56N 31°58' W 080°33'0 0.1
2018-Feb-18 05:26N 31°58' W 080°33'0 0.0
2018-Feb-18 04:56N 31°58' W 080°33'0 0.0
2018-Feb-18 04:26N 31°58' W 080°33'0 0.0
2018-Feb-18 03:44N 31°58' W 080°33'0 0.1
2018-Feb-18 03:26N 31°58' W 080°33'0 0.1
2018-Feb-18 02:56N 31°58' W 080°33'0 0.0
2018-Feb-18 02:26N 31°58' W 080°33'0 0.0
2018-Feb-18 01:56N 31°58' W 080°33'0 0.0
2018-Feb-18 01:20N 31°58' W 080°33'0 0.1
2018-Feb-18 00:56N 31°58' W 080°33'0 0.1
2018-Feb-18 00:26N 31°58' W 080°33'0 0.1
2018-Feb-17 23:56N 31°58' W 080°34'0 0.1
2018-Feb-17 23:26N 31°58' W 080°34'0 0.1
2018-Feb-17 22:56N 31°58' W 080°34'0 0.0
2018-Feb-17 22:26N 31°58' W 080°34'0 0.1
2018-Feb-17 21:56N 31°58' W 080°34'0 0.1
2018-Feb-17 20:44N 31°58' W 080°34'0 0.2
2018-Feb-17 20:26N 31°58' W 080°34'0 0.2
2018-Feb-17 19:56N 31°58' W 080°33'0 0.1
2018-Feb-17 19:20N 31°58' W 080°33'0 0.1
2018-Feb-17 18:56N 31°58' W 080°33'0 0.1
2018-Feb-17 18:20N 31°58' W 080°33'0 0.0
2018-Feb-17 17:56N 31°58' W 080°33'0 0.1
2018-Feb-17 17:26N 31°58' W 080°33'0 0.1
2018-Feb-17 16:56N 31°58' W 080°33'0 0.1
2018-Feb-17 16:26N 31°58' W 080°33'0 0.1
2018-Feb-17 15:56N 31°58' W 080°33'0 0.1
2018-Feb-17 15:20N 31°58' W 080°34'0 0.2
2018-Feb-17 14:56N 31°58' W 080°34'0 0.1
2018-Feb-17 14:30N 31°58' W 080°34'1 0.8
2018-Feb-17 13:46N 31°59' W 080°34'3 9.4
2018-Feb-17 13:30N 31°59' W 080°31'4 9.2
2018-Feb-17 13:00N 31°58' W 080°26'1 1.0
2018-Feb-17 12:27N 31°58' W 080°25'0 0.7
2018-Feb-17 12:00N 31°58' W 080°25'0 0.8
2018-Feb-17 11:30N 31°58' W 080°24'0 1.0
2018-Feb-17 11:00N 31°58' W 080°24'1 2.7
2018-Feb-17 10:30N 31°58' W 080°22'510.8
2018-Feb-17 10:00N 31°59' W 080°16'611.2
2018-Feb-17 09:30N 32°01' W 080°10'510.9
2018-Feb-17 09:00N 32°04' W 080°05'510.8
2018-Feb-17 08:30N 32°07' W 079°59'211 9.8
2018-Feb-16 10:58N 34°07' W 076°31'510.9
2018-Feb-16 10:30N 34°10' W 076°27'1010.7
2018-Feb-16 09:35N 34°17' W 076°18'110.8
2018-Feb-16 09:30N 34°17' W 076°17'610.9
2018-Feb-16 08:59N 34°21' W 076°12'611.4
2018-Feb-16 08:29N 34°25' W 076°07'612.1
2018-Feb-16 07:59N 34°29' W 076°02'811.8
2018-Feb-16 07:20N 34°35' W 075°55'132 8.9
2018-Feb-15 16:30N 36°46' W 075°38'610.2
2018-Feb-15 15:54N 36°48' W 075°45'410.0
2018-Feb-15 15:30N 36°50' W 075°49'510.1
2018-Feb-15 15:00N 36°53' W 075°54'5 9.7
2018-Feb-15 14:26N 36°56' W 075°59'4 8.9
2018-Feb-15 14:00N 36°58' W 076°04'713.7
2018-Feb-15 13:30N 36°60' W 076°12'611.1
2018-Feb-15 13:00N 36°59' W 076°19'5 9.0
2018-Feb-15 12:30N 36°55' W 076°20'3 6.7
2018-Feb-15 12:00N 36°52' W 076°19'0 0.5
2018-Feb-15 11:29N 36°51' W 076°20'0 0.0
2018-Feb-15 10:59N 36°51' W 076°20'0 0.0
2018-Feb-15 10:29N 36°51' W 076°20'0 0.0
2018-Feb-15 09:59N 36°51' W 076°20'0 0.0
2018-Feb-15 09:29N 36°51' W 076°20'0 0.0
2018-Feb-15 08:59N 36°51' W 076°20'0 0.0
2018-Feb-15 08:29N 36°51' W 076°20'0 0.0
2018-Feb-15 07:59N 36°51' W 076°20'0 0.0
2018-Feb-15 07:29N 36°51' W 076°20'0 0.0
2018-Feb-15 06:59N 36°51' W 076°20'0 0.0
2018-Feb-15 06:29N 36°51' W 076°20'0 0.0
2018-Feb-15 05:59N 36°51' W 076°20'0 0.0
2018-Feb-15 05:29N 36°51' W 076°20'0 0.0
2018-Feb-15 04:59N 36°51' W 076°20'0 0.0
2018-Feb-15 04:29N 36°51' W 076°20'0 0.0
2018-Feb-15 03:59N 36°51' W 076°20'0 0.0
2018-Feb-15 03:29N 36°51' W 076°20'0 0.0
2018-Feb-15 02:59N 36°51' W 076°20'0 0.0
2018-Feb-15 02:29N 36°51' W 076°20'0 0.0
2018-Feb-15 01:59N 36°51' W 076°20'0 0.0
2018-Feb-15 01:29N 36°51' W 076°20'0 0.0
2018-Feb-15 00:59N 36°51' W 076°20'0 0.0
2018-Feb-15 00:29N 36°51' W 076°20'0 0.0
2018-Feb-14 23:59N 36°51' W 076°20'0 0.0
2018-Feb-14 23:29N 36°51' W 076°20'0 0.0
2018-Feb-14 23:00N 36°51' W 076°20'0 0.9
2018-Feb-14 22:30N 36°52' W 076°19'3 6.0
2018-Feb-14 22:00N 36°55' W 076°20'4 8.9
2018-Feb-14 21:30N 36°59' W 076°20'712.3
2018-Feb-14 20:59N 36°60' W 076°11'816.8
2018-Feb-14 20:30N 36°57' W 076°02'510.1
2018-Feb-14 20:00N 36°56' W 075°56'4 7.2
2018-Feb-14 19:30N 36°53' W 075°53'5 9.0
2018-Feb-14 19:00N 36°51' W 075°48'5 9.7
2018-Feb-14 18:28N 36°48' W 075°43'3 2.1
2018-Feb-14 17:07N 36°46' W 075°41'0 0.4
2018-Feb-14 17:00N 36°45' W 075°40'1 0.4
2018-Feb-14 13:51N 36°46' W 075°42'2 7.2
2018-Feb-14 13:30N 36°48' W 075°44'5 9.7
2018-Feb-14 13:00N 36°50' W 075°49'5 9.7
2018-Feb-14 12:30N 36°53' W 075°54'5 9.8
2018-Feb-14 12:00N 36°57' W 075°59'612.2
2018-Feb-14 11:30N 37°01' W 076°03'916.8
2018-Feb-14 10:57N 37°09' W 076°09'917.9
2018-Feb-14 10:27N 37°18' W 076°06'1018.9
2018-Feb-14 09:57N 37°28' W 076°04'1917.7
2018-Feb-14 08:52N 37°46' W 076°11'1221.2
2018-Feb-14 08:17N 37°58' W 076°11'921.4
2018-Feb-14 07:52N 38°07' W 076°13'2421.4
2018-Feb-14 06:44N 38°30' W 076°24'520.9
2018-Feb-14 06:31N 38°34' W 076°26'1020.5
2018-Feb-14 06:00N 38°44' W 076°26'1121.2
2018-Feb-14 05:30N 38°55' W 076°23'714.0
2018-Feb-14 05:00N 39°02' W 076°23'714.0
2018-Feb-14 04:30N 39°09' W 076°24'611.4
2018-Feb-14 04:00N 39°12' W 076°30'4 8.2
2018-Feb-14 03:30N 39°15' W 076°34'0 0.9
2018-Feb-14 03:00N 39°15' W 076°33'0 0.0
2018-Feb-14 02:30N 39°15' W 076°33'0 0.0
2018-Feb-14 02:00N 39°15' W 076°33'0 0.0
2018-Feb-14 01:27N 39°15' W 076°33'0 0.0
2018-Feb-14 01:00N 39°15' W 076°33'0 0.0
2018-Feb-14 00:30N 39°15' W 076°33'0 0.0
2018-Feb-14 00:00N 39°15' W 076°33'0 0.0
2018-Feb-13 23:30N 39°15' W 076°33'0 0.0
2018-Feb-13 23:00N 39°15' W 076°33'0 0.0
2018-Feb-13 22:30N 39°15' W 076°33'0 0.0
2018-Feb-13 22:00N 39°15' W 076°33'0 0.0
2018-Feb-13 21:30N 39°15' W 076°33'0 0.0
2018-Feb-13 21:00N 39°15' W 076°33'0 0.0
2018-Feb-13 20:30N 39°15' W 076°33'0 0.0
2018-Feb-13 20:00N 39°15' W 076°33'0 0.0
2018-Feb-13 19:30N 39°15' W 076°33'0 0.0
2018-Feb-13 19:00N 39°15' W 076°33'0 0.0
2018-Feb-13 18:30N 39°15' W 076°33'0 0.0
2018-Feb-13 18:00N 39°15' W 076°33'0 0.0
2018-Feb-13 17:30N 39°15' W 076°33'0 0.0
2018-Feb-13 17:00N 39°15' W 076°33'0 0.0
2018-Feb-13 16:30N 39°15' W 076°33'0 0.0
2018-Feb-13 16:00N 39°15' W 076°33'0 0.0
2018-Feb-13 15:30N 39°15' W 076°33'0 0.0
2018-Feb-13 15:00N 39°15' W 076°33'0 0.0
2018-Feb-13 14:30N 39°15' W 076°33'0 0.0
2018-Feb-13 14:00N 39°15' W 076°33'0 0.0
2018-Feb-13 13:30N 39°15' W 076°33'0 0.0
2018-Feb-13 13:00N 39°15' W 076°33'0 0.0
2018-Feb-13 12:30N 39°15' W 076°33'0 0.0
2018-Feb-13 12:00N 39°15' W 076°33'0 0.0
2018-Feb-13 11:30N 39°15' W 076°33'0 0.0
2018-Feb-13 11:00N 39°15' W 076°33'1 1.8
2018-Feb-13 10:30N 39°14' W 076°33'2 3.1
2018-Feb-13 10:00N 39°13' W 076°32'2 4.4
2018-Feb-13 09:30N 39°12' W 076°29'611.1
2018-Feb-13 09:01N 39°08' W 076°24'713.9
2018-Feb-13 08:30N 39°01' W 076°23'714.4
2018-Feb-13 08:00N 38°54' W 076°24'918.9
2018-Feb-13 07:30N 38°45' W 076°26'918.7
2018-Feb-13 07:01N 38°35' W 076°26'3218.9
2018-Feb-13 05:19N 38°05' W 076°13'618.8
2018-Feb-13 04:59N 37°59' W 076°12'3017.6
2018-Feb-13 03:18N 37°30' W 076°03'918.3
2018-Feb-13 02:49N 37°22' W 076°05'719.1
2018-Feb-13 02:28N 37°15' W 076°08'917.1
2018-Feb-13 01:57N 37°06' W 076°07'818.0
2018-Feb-13 01:30N 36°60' W 076°01'510.9
2018-Feb-13 01:00N 36°56' W 075°57'4 7.3
2018-Feb-13 00:30N 36°54' W 075°53'6 9.7
2018-Feb-12 23:55N 36°50' W 075°47'  

Dump ship's entire track history